createdAt,value
2022-12-13T00:02:12.936Z,16.84
2022-12-13T00:07:14.327Z,17.01
2022-12-13T00:12:16.040Z,16.67
2022-12-13T00:17:17.406Z,17.07
2022-12-13T00:22:19.252Z,16.75
2022-12-13T00:27:20.624Z,16.70
2022-12-13T00:32:22.061Z,16.61
2022-12-13T00:37:23.475Z,16.62
2022-12-13T00:42:24.862Z,16.49
2022-12-13T00:47:26.239Z,16.41
2022-12-13T00:52:27.623Z,16.43
2022-12-13T00:57:29.003Z,16.58
2022-12-13T01:02:30.372Z,16.42
2022-12-13T01:07:31.771Z,16.37
2022-12-13T01:12:35.914Z,16.58
2022-12-13T01:17:37.344Z,16.48
2022-12-13T01:22:38.745Z,16.41
2022-12-13T01:27:40.109Z,16.26
2022-12-13T01:32:41.495Z,16.52
2022-12-13T01:37:43.007Z,16.34
2022-12-13T01:42:44.388Z,16.32
2022-12-13T01:47:46.827Z,16.36
2022-12-13T01:52:48.404Z,16.29
2022-12-13T01:57:49.771Z,16.50
2022-12-13T02:02:51.217Z,16.30
2022-12-13T02:07:52.639Z,16.28
2022-12-13T02:12:54.088Z,16.42
2022-12-13T02:18:30.230Z,16.30
2022-12-13T02:23:46.698Z,16.34
2022-12-13T02:29:06.599Z,16.37
2022-12-13T02:34:14.276Z,16.46
2022-12-13T02:39:30.193Z,16.26
2022-12-13T02:44:35.875Z,16.38
2022-12-13T02:49:38.657Z,16.24
2022-12-13T02:54:42.837Z,16.45
2022-12-13T02:59:44.381Z,16.31
2022-12-13T03:05:21.282Z,16.51
2022-12-13T03:10:27.987Z,16.32
2022-12-13T03:15:49.363Z,16.49
2022-12-13T03:20:53.058Z,16.52
2022-12-13T03:25:55.767Z,16.26
2022-12-13T03:30:57.174Z,16.24
2022-12-13T03:35:58.568Z,16.10
2022-12-13T03:41:04.711Z,15.98
2022-12-13T03:46:06.929Z,15.96
2022-12-13T03:51:08.327Z,15.82
2022-12-13T03:56:09.685Z,15.81
2022-12-13T04:01:12.752Z,15.78
2022-12-13T04:06:22.250Z,15.69
2022-12-13T04:11:43.728Z,15.65
2022-12-13T04:16:45.245Z,15.74
2022-12-13T04:21:46.624Z,15.66
2022-12-13T04:26:48.032Z,15.72
2022-12-13T04:31:49.492Z,15.53
2022-12-13T04:36:50.925Z,15.60
2022-12-13T04:41:52.720Z,15.46
2022-12-13T04:46:54.096Z,15.45
2022-12-13T04:52:02.642Z,15.48
2022-12-13T04:57:08.167Z,15.10
2022-12-13T05:02:10.152Z,15.31
2022-12-13T05:07:11.523Z,15.09
2022-12-13T05:12:22.327Z,15.07
2022-12-13T05:17:24.779Z,15.02
2022-12-13T05:22:26.547Z,14.84
2022-12-13T05:27:27.998Z,14.71
2022-12-13T05:32:42.700Z,14.80
2022-12-13T05:37:46.237Z,14.69
2022-12-13T05:43:00.689Z,14.53
2022-12-13T05:48:02.557Z,14.48
2022-12-13T05:53:04.543Z,14.34
2022-12-13T05:58:05.927Z,14.29
2022-12-13T06:03:14.919Z,14.14
2022-12-13T06:08:24.006Z,14.15
2022-12-13T06:13:32.323Z,14.11
2022-12-13T06:18:34.559Z,14.24
2022-12-13T06:23:35.978Z,13.97
2022-12-13T06:28:37.375Z,14.04
2022-12-13T06:33:38.909Z,14.08
2022-12-13T06:38:43.231Z,13.96
2022-12-13T06:43:45.146Z,14.01
2022-12-13T06:48:46.550Z,14.10
2022-12-13T06:53:47.974Z,14.01
2022-12-13T06:58:49.343Z,14.07
2022-12-13T07:03:50.773Z,14.12
2022-12-13T07:08:56.461Z,14.00
2022-12-13T07:13:57.821Z,14.08
2022-12-13T07:19:01.277Z,13.81
2022-12-13T07:24:02.944Z,13.58
2022-12-13T07:29:04.638Z,13.49
2022-12-13T07:34:06.048Z,13.39
2022-12-13T07:39:07.459Z,13.49
2022-12-13T07:44:08.879Z,13.44
2022-12-13T07:49:11.553Z,13.40
2022-12-13T07:54:12.919Z,13.44
2022-12-13T07:59:14.297Z,13.40
2022-12-13T08:04:15.694Z,13.59
2022-12-13T08:09:17.088Z,13.61
2022-12-13T08:14:19.280Z,13.91
2022-12-13T08:19:20.908Z,13.83
2022-12-13T08:24:26.240Z,13.89
2022-12-13T08:29:34.820Z,13.83
2022-12-13T08:34:36.703Z,14.59
2022-12-13T08:39:38.286Z,14.95
2022-12-13T08:44:39.660Z,14.62
2022-12-13T08:49:41.512Z,14.23
2022-12-13T08:54:44.539Z,14.06
2022-12-13T08:59:46.248Z,13.80
2022-12-13T09:04:47.642Z,14.11
2022-12-13T09:09:55.181Z,13.68
2022-12-13T09:15:01.629Z,13.70
2022-12-13T09:20:03.999Z,13.58
2022-12-13T09:25:15.001Z,13.60
2022-12-13T09:30:25.903Z,13.40
2022-12-13T09:35:32.906Z,13.41
2022-12-13T09:40:37.571Z,13.46
2022-12-13T09:45:42.841Z,13.60
2022-12-13T09:50:58.036Z,13.77
2022-12-13T09:56:10.215Z,13.75
2022-12-13T10:01:12.552Z,14.13
2022-12-13T10:06:23.501Z,14.20
2022-12-13T10:11:32.609Z,14.22
2022-12-13T10:16:35.764Z,14.36
2022-12-13T10:21:39.661Z,14.54
2022-12-13T10:26:41.081Z,14.86
2022-12-13T10:31:50.728Z,14.48
2022-12-13T10:36:52.158Z,14.64
2022-12-13T10:42:02.493Z,15.12
2022-12-13T10:47:17.013Z,15.15
2022-12-13T10:52:30.856Z,14.91
2022-12-13T10:57:33.127Z,14.74
2022-12-13T11:02:38.358Z,14.54
2022-12-13T11:07:39.915Z,14.65
2022-12-13T11:12:41.311Z,14.38
2022-12-13T11:17:53.435Z,14.35
2022-12-13T11:23:22.722Z,14.25
2022-12-13T11:28:53.776Z,14.34
2022-12-13T11:34:22.379Z,14.27
2022-12-13T11:39:27.992Z,14.20
2022-12-13T11:44:52.987Z,14.49
2022-12-13T11:49:54.388Z,14.97
2022-12-13T11:55:05.872Z,15.05
2022-12-13T12:00:35.899Z,15.15
2022-12-13T12:05:38.160Z,15.64
2022-12-13T12:10:49.276Z,15.33
2022-12-13T12:16:13.355Z,14.89
2022-12-13T12:27:30.902Z,14.43
2022-12-13T12:32:33.621Z,14.51
2022-12-13T12:37:53.557Z,14.25
2022-12-13T12:43:15.823Z,14.37
2022-12-13T12:54:18.737Z,14.30
2022-12-13T12:59:36.116Z,14.60
2022-12-13T13:04:42.386Z,14.52
2022-12-13T13:09:43.808Z,14.52
2022-12-13T13:14:45.173Z,14.46
2022-12-13T13:19:47.499Z,14.48
2022-12-13T13:24:58.472Z,14.51
2022-12-13T13:30:26.256Z,14.70
2022-12-13T13:35:30.961Z,14.42
2022-12-13T13:40:38.302Z,14.58
2022-12-13T13:45:49.916Z,14.57
2022-12-13T13:51:15.631Z,14.79
2022-12-13T13:56:54.476Z,14.39
2022-12-13T14:02:22.544Z,14.44
2022-12-13T14:07:48.050Z,14.44
2022-12-13T14:12:55.408Z,14.59
2022-12-13T14:18:25.048Z,14.77
2022-12-13T14:23:42.840Z,14.67
2022-12-13T14:28:53.737Z,15.07
2022-12-13T14:33:55.768Z,16.08
2022-12-13T14:39:02.109Z,16.13
2022-12-13T14:44:24.632Z,16.16
2022-12-13T14:49:28.509Z,16.11
2022-12-13T14:54:33.594Z,15.86
2022-12-13T14:59:34.969Z,15.77
2022-12-13T15:04:37.678Z,15.68
2022-12-13T15:09:40.144Z,15.52
2022-12-13T15:14:55.789Z,15.38
2022-12-13T15:19:57.227Z,15.12
2022-12-13T15:24:58.681Z,15.40
2022-12-13T15:30:00.058Z,15.20
2022-12-13T15:35:14.508Z,15.18
2022-12-13T15:40:15.963Z,15.20
2022-12-13T15:45:19.850Z,14.99
2022-12-13T15:50:38.518Z,15.15
2022-12-13T15:55:42.613Z,14.94
2022-12-13T16:00:48.294Z,15.02
2022-12-13T16:05:53.435Z,15.00
2022-12-13T16:10:54.829Z,14.94
2022-12-13T16:16:09.138Z,15.04
2022-12-13T16:21:11.038Z,14.99
2022-12-13T16:26:13.321Z,14.83
2022-12-13T16:31:18.630Z,14.93
2022-12-13T16:36:20.174Z,14.90
2022-12-13T16:41:21.982Z,14.94
2022-12-13T16:47:15.155Z,14.88
2022-12-13T16:51:48.549Z,15.05
2022-12-13T16:56:50.543Z,14.90
2022-12-13T17:01:51.963Z,15.06
2022-12-13T17:06:55.209Z,14.92
2022-12-13T17:11:56.898Z,14.95
2022-12-13T17:16:58.334Z,14.97
2022-12-13T17:21:59.747Z,14.93
2022-12-13T17:27:01.116Z,14.87
2022-12-13T17:32:03.249Z,14.73
2022-12-13T17:37:10.208Z,14.77
2022-12-13T17:42:12.040Z,14.69
2022-12-13T17:47:13.699Z,14.63
2022-12-13T17:52:15.089Z,14.66
2022-12-13T17:57:16.463Z,14.63
2022-12-13T18:02:22.632Z,14.60
2022-12-13T18:07:24.011Z,14.52
2022-12-13T18:12:25.657Z,14.50
2022-12-13T18:17:46.529Z,14.41
2022-12-13T18:22:51.504Z,14.47
2022-12-13T18:28:00.672Z,14.35
2022-12-13T18:33:02.606Z,14.29
2022-12-13T18:38:04.052Z,14.27
2022-12-13T18:43:05.485Z,14.43
2022-12-13T18:48:06.933Z,14.22
2022-12-13T18:53:08.319Z,14.13
2022-12-13T18:58:09.707Z,14.10
2022-12-13T19:03:11.165Z,14.16
2022-12-13T19:08:12.632Z,14.16
2022-12-13T19:13:14.000Z,13.97
2022-12-13T19:18:15.381Z,14.21
2022-12-13T19:23:17.856Z,14.13
2022-12-13T19:28:19.283Z,14.05
2022-12-13T19:33:20.687Z,14.02
2022-12-13T19:38:22.223Z,13.89
2022-12-13T19:43:23.873Z,14.02
2022-12-13T19:48:25.500Z,13.85
2022-12-13T19:53:27.949Z,13.99
2022-12-13T19:58:29.664Z,13.93
2022-12-13T20:03:32.794Z,13.80
2022-12-13T20:08:34.272Z,13.94
2022-12-13T20:13:35.660Z,13.76
2022-12-13T20:18:37.020Z,14.08
2022-12-13T20:23:38.387Z,14.11
2022-12-13T20:28:39.764Z,14.14
2022-12-13T20:33:42.172Z,14.05
2022-12-13T20:38:43.648Z,14.02
2022-12-13T20:43:48.488Z,13.75
2022-12-13T20:48:50.768Z,13.91
2022-12-13T20:53:52.208Z,13.98
2022-12-13T20:58:53.623Z,13.96
2022-12-13T21:03:55.620Z,13.99
2022-12-13T21:09:02.320Z,13.99
2022-12-13T21:14:21.285Z,13.83
2022-12-13T21:19:39.430Z,13.97
2022-12-13T21:24:41.735Z,13.83
2022-12-13T21:29:43.098Z,13.77
2022-12-13T21:34:44.489Z,13.85
2022-12-13T21:39:46.087Z,13.92
2022-12-13T21:44:47.492Z,13.89
2022-12-13T21:49:49.068Z,13.78
2022-12-13T21:54:52.921Z,13.67
2022-12-13T22:00:00.589Z,13.84
2022-12-13T22:05:02.062Z,13.79
2022-12-13T22:10:03.584Z,13.86
2022-12-13T22:15:07.105Z,13.72
2022-12-13T22:20:13.453Z,13.71
2022-12-13T22:25:14.927Z,13.81
2022-12-13T22:30:16.352Z,13.92
2022-12-13T22:35:17.716Z,13.85
2022-12-13T22:40:19.175Z,13.96
2022-12-13T22:45:20.591Z,13.89
2022-12-13T22:50:22.221Z,13.97
2022-12-13T22:55:23.587Z,13.88
2022-12-13T23:00:24.960Z,13.86
2022-12-13T23:05:26.344Z,13.87
2022-12-13T23:10:46.028Z,13.89
2022-12-13T23:15:49.537Z,13.93
2022-12-13T23:20:51.088Z,13.93
2022-12-13T23:25:52.548Z,13.81
2022-12-13T23:30:53.957Z,13.97
2022-12-13T23:36:09.195Z,14.01
2022-12-13T23:41:27.126Z,14.00
2022-12-13T23:46:34.996Z,14.17
2022-12-13T23:51:37.803Z,13.98
2022-12-13T23:56:39.182Z,13.89
